createdAt,value
2023-01-19T00:01:56.482Z,97.17
2023-01-19T00:04:59.495Z,96.79
2023-01-19T00:08:14.790Z,96.39
2023-01-19T00:11:19.728Z,96.77
2023-01-19T00:14:21.721Z,96.53
2023-01-19T00:17:23.724Z,96.17
2023-01-19T00:20:26.014Z,95.94
2023-01-19T00:23:27.895Z,95.80
2023-01-19T00:26:29.796Z,95.79
2023-01-19T00:29:34.374Z,95.83
2023-01-19T00:32:36.256Z,95.59
2023-01-19T00:35:38.261Z,95.58
2023-01-19T00:38:40.214Z,95.07
2023-01-19T00:42:01.118Z,95.15
2023-01-19T00:45:02.978Z,95.10
2023-01-19T00:48:05.051Z,94.96
2023-01-19T00:51:06.918Z,94.87
2023-01-19T00:54:10.468Z,94.96
2023-01-19T00:57:12.786Z,95.01
2023-01-19T01:00:17.403Z,94.66
2023-01-19T01:03:19.485Z,94.80
2023-01-19T01:06:21.557Z,94.61
2023-01-19T01:09:24.363Z,94.65
2023-01-19T01:12:26.425Z,94.38
2023-01-19T01:15:29.634Z,94.25
2023-01-19T01:18:31.673Z,94.29
2023-01-19T01:21:34.753Z,94.32
2023-01-19T01:24:36.768Z,93.99
2023-01-19T01:27:38.913Z,93.87
2023-01-19T01:30:41.268Z,93.90
2023-01-19T01:33:43.161Z,93.95
2023-01-19T01:36:45.080Z,93.57
2023-01-19T01:39:46.987Z,93.51
2023-01-19T01:42:48.956Z,93.42
2023-01-19T01:45:52.067Z,93.57
2023-01-19T01:49:10.439Z,93.41
2023-01-19T01:52:15.147Z,93.47
2023-01-19T01:55:18.165Z,93.60
2023-01-19T01:58:19.947Z,93.22
2023-01-19T02:01:41.171Z,93.42
2023-01-19T02:04:50.633Z,93.26
2023-01-19T02:08:33.777Z,93.37
2023-01-19T02:11:54.939Z,93.38
2023-01-19T02:14:56.890Z,93.14
2023-01-19T02:17:59.000Z,93.84
2023-01-19T02:21:15.805Z,93.70
2023-01-19T02:24:18.351Z,93.36
2023-01-19T02:27:20.869Z,93.54
2023-01-19T02:30:23.155Z,93.57
2023-01-19T02:33:25.193Z,93.77
2023-01-19T02:36:41.245Z,93.47
2023-01-19T02:39:51.834Z,93.31
2023-01-19T02:42:59.009Z,93.58
2023-01-19T02:46:01.228Z,93.77
2023-01-19T02:49:03.200Z,94.04
2023-01-19T02:52:05.987Z,94.00
2023-01-19T02:55:18.361Z,93.82
2023-01-19T02:58:54.649Z,93.77
2023-01-19T03:02:05.630Z,93.61
2023-01-19T03:05:38.655Z,94.01
2023-01-19T03:09:02.000Z,93.75
2023-01-19T03:12:15.084Z,93.78
2023-01-19T03:15:27.554Z,94.04
2023-01-19T03:18:33.941Z,93.69
2023-01-19T03:21:37.547Z,93.62
2023-01-19T03:24:43.481Z,93.73
2023-01-19T03:27:47.264Z,94.04
2023-01-19T03:30:57.994Z,93.58
2023-01-19T03:34:08.345Z,93.93
2023-01-19T03:37:11.585Z,93.82
2023-01-19T03:40:13.671Z,93.72
2023-01-19T03:43:18.296Z,93.77
2023-01-19T03:46:21.061Z,94.05
2023-01-19T03:49:23.146Z,93.56
2023-01-19T03:52:33.682Z,93.88
2023-01-19T03:55:37.149Z,93.55
2023-01-19T03:58:38.983Z,93.61
2023-01-19T04:01:41.490Z,93.57
2023-01-19T04:04:43.485Z,93.63
2023-01-19T04:07:45.515Z,93.93
2023-01-19T04:10:47.337Z,94.01
2023-01-19T04:13:49.892Z,93.96
2023-01-19T04:16:52.397Z,94.33
2023-01-19T04:19:54.329Z,94.21
2023-01-19T04:23:00.138Z,94.31
2023-01-19T04:26:05.116Z,94.19
2023-01-19T04:29:06.986Z,94.25
2023-01-19T04:32:09.295Z,94.22
2023-01-19T04:35:11.273Z,93.90
2023-01-19T04:38:13.483Z,93.96
2023-01-19T04:41:15.427Z,94.11
2023-01-19T04:44:18.027Z,94.42
2023-01-19T04:47:20.340Z,94.28
2023-01-19T04:50:22.292Z,94.31
2023-01-19T04:53:24.196Z,94.23
2023-01-19T04:56:26.085Z,94.33
2023-01-19T04:59:28.000Z,93.90
2023-01-19T05:02:30.096Z,93.98
2023-01-19T05:05:33.240Z,93.90
2023-01-19T05:08:35.301Z,93.37
2023-01-19T05:11:37.235Z,93.63
2023-01-19T05:14:39.162Z,93.71
2023-01-19T05:17:41.251Z,93.87
2023-01-19T05:20:43.231Z,94.35
2023-01-19T05:23:45.287Z,94.18
2023-01-19T05:26:47.250Z,94.23
2023-01-19T05:29:49.087Z,94.29
2023-01-19T05:32:51.091Z,94.10
2023-01-19T05:35:53.537Z,94.13
2023-01-19T05:38:55.722Z,94.16
2023-01-19T05:41:57.599Z,94.21
2023-01-19T05:44:59.700Z,94.11
2023-01-19T05:48:02.267Z,94.42
2023-01-19T05:51:05.242Z,94.50
2023-01-19T05:54:07.916Z,94.45
2023-01-19T05:57:10.843Z,94.34
2023-01-19T06:00:12.962Z,94.56
2023-01-19T06:03:15.087Z,94.27
2023-01-19T06:06:17.260Z,94.39
2023-01-19T06:09:19.220Z,94.29
2023-01-19T06:12:21.172Z,94.44
2023-01-19T06:15:23.104Z,94.03
2023-01-19T06:18:25.085Z,94.43
2023-01-19T06:21:26.962Z,94.40
2023-01-19T06:24:29.748Z,94.29
2023-01-19T06:27:31.692Z,94.48
2023-01-19T06:30:33.593Z,94.24
2023-01-19T06:33:35.552Z,94.30
2023-01-19T06:36:37.502Z,94.21
2023-01-19T06:39:41.171Z,94.37
2023-01-19T06:42:43.088Z,94.35
2023-01-19T06:45:46.107Z,94.27
2023-01-19T06:48:48.235Z,94.11
2023-01-19T06:51:50.503Z,94.13
2023-01-19T06:54:52.848Z,93.97
2023-01-19T06:58:01.395Z,93.84
2023-01-19T07:01:05.627Z,93.63
2023-01-19T07:04:07.746Z,93.43
2023-01-19T07:07:09.653Z,93.05
2023-01-19T07:10:15.707Z,92.92
2023-01-19T07:13:17.762Z,92.95
2023-01-19T07:16:20.073Z,92.55
2023-01-19T07:19:21.919Z,92.55
2023-01-19T07:22:23.949Z,92.44
2023-01-19T07:25:27.066Z,92.31
2023-01-19T07:28:30.221Z,92.02
2023-01-19T07:31:32.149Z,91.97
2023-01-19T07:34:34.698Z,92.02
2023-01-19T07:37:36.649Z,92.14
2023-01-19T07:40:38.461Z,91.92
2023-01-19T07:43:40.375Z,91.94
2023-01-19T07:46:43.418Z,92.00
2023-01-19T07:49:45.313Z,92.06
2023-01-19T07:52:48.246Z,92.08
2023-01-19T07:55:54.473Z,92.09
2023-01-19T07:58:56.750Z,92.38
2023-01-19T08:01:59.641Z,92.21
2023-01-19T08:05:02.137Z,92.09
2023-01-19T08:08:05.632Z,92.35
2023-01-19T08:11:08.569Z,92.13
2023-01-19T08:14:10.854Z,92.11
2023-01-19T08:17:51.092Z,92.09
2023-01-19T08:20:53.031Z,91.96
2023-01-19T08:23:56.200Z,91.79
2023-01-19T08:27:00.356Z,91.61
2023-01-19T08:30:02.298Z,91.71
2023-01-19T08:33:04.661Z,91.88
2023-01-19T08:36:06.843Z,91.80
2023-01-19T08:39:12.260Z,91.54
2023-01-19T08:42:14.132Z,91.36
2023-01-19T08:45:16.210Z,91.24
2023-01-19T08:48:22.167Z,91.18
2023-01-19T08:51:24.272Z,91.31
2023-01-19T08:54:26.305Z,91.28
2023-01-19T08:57:28.451Z,91.15
2023-01-19T09:00:31.889Z,91.21
2023-01-19T09:03:34.019Z,90.81
2023-01-19T09:06:36.007Z,90.64
2023-01-19T09:09:39.805Z,90.31
2023-01-19T09:12:43.645Z,90.34
2023-01-19T09:15:46.445Z,90.20
2023-01-19T09:18:48.432Z,90.10
2023-01-19T09:21:51.040Z,89.90
2023-01-19T09:24:52.959Z,90.06
2023-01-19T09:27:56.220Z,89.78
2023-01-19T09:30:59.087Z,89.78
2023-01-19T09:34:00.916Z,89.65
2023-01-19T09:37:03.873Z,89.70
2023-01-19T09:40:06.382Z,89.66
2023-01-19T09:43:31.926Z,89.78
2023-01-19T09:46:42.922Z,89.53
2023-01-19T09:49:55.157Z,89.55
2023-01-19T09:53:04.482Z,89.37
2023-01-19T09:56:13.846Z,89.09
2023-01-19T09:59:25.293Z,89.00
2023-01-19T10:02:36.777Z,88.77
2023-01-19T10:06:06.348Z,88.24
2023-01-19T10:09:29.509Z,87.83
2023-01-19T10:12:54.748Z,87.99
2023-01-19T10:16:02.764Z,88.03
2023-01-19T10:29:53.380Z,88.35
2023-01-19T10:32:55.562Z,88.27
2023-01-19T10:35:57.563Z,88.31
2023-01-19T10:38:59.651Z,88.08
2023-01-19T10:42:05.998Z,87.92
2023-01-19T10:45:18.899Z,87.96
2023-01-19T10:48:20.951Z,87.94
2023-01-19T10:51:23.447Z,87.86
2023-01-19T10:54:27.902Z,87.55
2023-01-19T10:57:37.983Z,87.44
2023-01-19T11:00:44.391Z,87.57
2023-01-19T11:03:46.823Z,87.54
2023-01-19T11:06:49.098Z,87.51
2023-01-19T11:10:23.137Z,87.14
2023-01-19T11:13:25.307Z,87.20
2023-01-19T11:16:35.161Z,87.14
2023-01-19T11:19:37.294Z,86.87
2023-01-19T11:22:39.340Z,86.79
2023-01-19T11:25:45.461Z,86.76
2023-01-19T11:28:49.221Z,86.33
2023-01-19T11:31:53.312Z,86.21
2023-01-19T11:34:55.331Z,85.91
2023-01-19T11:38:27.560Z,85.38
2023-01-19T11:41:33.410Z,85.47
2023-01-19T11:45:01.858Z,85.06
2023-01-19T11:48:05.948Z,84.93
2023-01-19T11:51:14.645Z,84.80
2023-01-19T11:54:25.706Z,84.73
2023-01-19T11:57:27.735Z,84.74
2023-01-19T12:00:36.185Z,84.41
2023-01-19T12:03:42.433Z,84.19
2023-01-19T12:06:49.460Z,84.10
2023-01-19T12:09:56.528Z,84.07
2023-01-19T12:12:59.411Z,83.85
2023-01-19T12:16:05.580Z,83.78
2023-01-19T12:19:16.201Z,83.61
2023-01-19T12:22:20.301Z,83.51
2023-01-19T12:25:29.998Z,83.45
2023-01-19T12:28:37.114Z,83.74
2023-01-19T12:31:40.845Z,83.68
2023-01-19T12:34:47.922Z,83.34
2023-01-19T12:37:49.704Z,83.66
2023-01-19T12:41:23.052Z,83.55
2023-01-19T12:44:27.795Z,83.64
2023-01-19T12:47:30.001Z,83.68
2023-01-19T12:50:40.055Z,83.62
2023-01-19T12:53:51.965Z,83.50
2023-01-19T12:57:28.418Z,83.26
2023-01-19T13:00:36.291Z,83.38
2023-01-19T13:04:02.072Z,83.55
2023-01-19T13:07:10.388Z,83.60
2023-01-19T13:10:49.928Z,83.46
2023-01-19T13:14:00.832Z,83.36
2023-01-19T13:17:05.569Z,83.21
2023-01-19T13:20:22.694Z,82.77
2023-01-19T13:23:27.567Z,82.97
2023-01-19T13:26:33.465Z,83.07
2023-01-19T13:29:43.062Z,82.96
2023-01-19T13:32:45.305Z,83.22
2023-01-19T13:35:56.559Z,83.18
2023-01-19T13:39:01.639Z,83.42
2023-01-19T13:42:16.434Z,83.60
2023-01-19T13:45:24.235Z,83.76
2023-01-19T13:48:26.250Z,84.04
2023-01-19T13:51:28.241Z,84.03
2023-01-19T13:54:30.239Z,84.37
2023-01-19T13:57:33.299Z,84.29
2023-01-19T14:00:35.295Z,84.16
2023-01-19T14:03:46.455Z,84.38
2023-01-19T14:06:49.809Z,84.48
2023-01-19T14:10:12.299Z,84.04
2023-01-19T14:13:29.806Z,84.23
2023-01-19T14:16:31.988Z,84.19
2023-01-19T14:19:51.091Z,84.37
2023-01-19T14:22:53.286Z,84.10
2023-01-19T14:25:55.313Z,84.46
2023-01-19T14:28:57.326Z,84.35
2023-01-19T14:32:09.979Z,84.64
2023-01-19T14:35:23.251Z,84.78
2023-01-19T14:38:25.733Z,84.93
2023-01-19T14:41:40.777Z,84.96
2023-01-19T14:44:48.213Z,85.05
2023-01-19T14:48:02.859Z,85.22
2023-01-19T14:51:08.004Z,85.50
2023-01-19T14:54:21.647Z,85.22
2023-01-19T14:57:23.880Z,85.64
2023-01-19T15:00:27.290Z,85.16
2023-01-19T15:03:44.211Z,85.12
2023-01-19T15:06:49.341Z,85.36
2023-01-19T15:09:53.653Z,85.20
2023-01-19T15:12:56.652Z,85.29
2023-01-19T15:15:59.072Z,85.41
2023-01-19T15:19:01.182Z,85.29
2023-01-19T15:22:13.427Z,85.18
2023-01-19T15:25:31.694Z,85.00
2023-01-19T15:28:34.465Z,85.08
2023-01-19T15:31:39.575Z,84.84
2023-01-19T15:34:42.304Z,84.89
2023-01-19T15:37:45.053Z,84.77
2023-01-19T15:40:51.491Z,84.42
2023-01-19T15:43:53.972Z,84.33
2023-01-19T15:46:57.516Z,84.25
2023-01-19T15:49:59.534Z,84.16
2023-01-19T15:53:01.614Z,84.01
2023-01-19T15:56:03.840Z,83.78
2023-01-19T15:59:06.784Z,83.65
2023-01-19T16:02:09.773Z,83.72
2023-01-19T16:05:13.219Z,83.77
2023-01-19T16:08:17.796Z,83.91
2023-01-19T16:11:20.232Z,83.82
2023-01-19T16:14:22.441Z,83.54
2023-01-19T16:17:25.330Z,83.57
2023-01-19T16:20:27.130Z,83.57
2023-01-19T16:23:29.102Z,83.85
2023-01-19T16:26:34.429Z,83.67
2023-01-19T16:29:36.521Z,83.84
2023-01-19T16:32:39.090Z,84.07
2023-01-19T16:35:41.135Z,84.14
2023-01-19T16:38:43.114Z,84.24
2023-01-19T16:41:46.786Z,84.37
2023-01-19T16:44:48.772Z,84.40
2023-01-19T16:47:52.246Z,84.43
2023-01-19T16:51:05.904Z,84.73
2023-01-19T16:54:16.411Z,84.54
2023-01-19T16:57:20.640Z,84.60
2023-01-19T17:00:26.830Z,84.60
2023-01-19T17:03:28.742Z,84.60
2023-01-19T17:06:32.133Z,84.90
2023-01-19T17:09:35.237Z,84.86
2023-01-19T17:12:38.613Z,85.30
2023-01-19T17:15:40.736Z,84.83
2023-01-19T17:18:42.782Z,84.58
2023-01-19T17:35:11.914Z,83.67
2023-01-19T17:38:17.137Z,83.59
2023-01-19T17:41:24.605Z,83.57
2023-01-19T17:44:26.549Z,83.27
2023-01-19T17:47:29.408Z,83.01
2023-01-19T17:50:32.232Z,83.30
2023-01-19T17:53:36.041Z,83.13
2023-01-19T17:56:38.909Z,83.18
2023-01-19T17:59:43.786Z,82.96
2023-01-19T18:02:49.253Z,82.89
2023-01-19T18:05:58.351Z,82.79
2023-01-19T18:09:02.705Z,82.89
2023-01-19T18:12:04.937Z,82.39
2023-01-19T18:15:08.575Z,82.22
2023-01-19T18:18:10.477Z,82.19
2023-01-19T18:21:14.885Z,82.04
2023-01-19T18:24:17.028Z,81.68
2023-01-19T18:27:20.636Z,82.03
2023-01-19T18:30:22.976Z,81.44
2023-01-19T18:33:25.792Z,81.26
2023-01-19T18:36:28.785Z,80.79
2023-01-19T18:39:31.197Z,80.72
2023-01-19T18:42:34.010Z,80.28
2023-01-19T18:45:37.197Z,80.30
2023-01-19T18:48:39.781Z,80.02
2023-01-19T18:51:42.092Z,80.04
2023-01-19T18:54:44.037Z,79.31
2023-01-19T18:57:46.009Z,79.34
2023-01-19T19:00:49.247Z,79.10
2023-01-19T19:03:52.877Z,79.07
2023-01-19T19:06:54.790Z,78.98
2023-01-19T19:09:56.685Z,78.82
2023-01-19T19:13:01.353Z,78.93
2023-01-19T19:16:07.980Z,78.17
2023-01-19T19:19:11.974Z,78.16
2023-01-19T19:22:14.183Z,78.60
2023-01-19T19:25:16.273Z,78.27
2023-01-19T19:28:18.568Z,77.98
2023-01-19T19:31:22.572Z,78.00
2023-01-19T19:34:25.052Z,77.73
2023-01-19T19:37:26.974Z,77.77
2023-01-19T19:40:29.312Z,77.17
2023-01-19T19:43:37.935Z,77.21
2023-01-19T19:46:41.446Z,77.41
2023-01-19T19:49:43.479Z,76.87
2023-01-19T19:52:45.402Z,76.96
2023-01-19T19:56:01.734Z,76.61
2023-01-19T19:59:03.712Z,76.78
2023-01-19T20:02:05.732Z,76.95
2023-01-19T20:05:08.086Z,76.92
2023-01-19T20:08:10.062Z,76.78
2023-01-19T20:11:14.716Z,77.26
2023-01-19T20:14:16.655Z,77.26
2023-01-19T20:17:19.203Z,77.34
2023-01-19T20:20:21.127Z,77.30
2023-01-19T20:23:22.998Z,77.50
2023-01-19T20:26:29.360Z,77.46
2023-01-19T20:29:31.355Z,77.54
2023-01-19T20:32:33.741Z,77.71
2023-01-19T20:35:35.704Z,77.81
2023-01-19T20:38:38.654Z,77.88
2023-01-19T20:41:43.824Z,77.86
2023-01-19T20:44:45.791Z,77.79
2023-01-19T20:47:47.641Z,78.18
2023-01-19T20:50:49.866Z,78.17
2023-01-19T20:53:51.802Z,78.36
2023-01-19T20:56:54.124Z,78.24
2023-01-19T20:59:56.097Z,78.13
2023-01-19T21:02:58.348Z,78.13
2023-01-19T21:06:00.276Z,78.20
2023-01-19T21:09:02.547Z,78.44
2023-01-19T21:12:04.586Z,78.15
2023-01-19T21:15:07.108Z,78.40
2023-01-19T21:18:08.944Z,78.51
2023-01-19T21:21:24.583Z,78.58
2023-01-19T21:24:31.123Z,78.41
2023-01-19T21:27:33.227Z,78.57
2023-01-19T21:30:36.468Z,78.46
2023-01-19T21:33:39.874Z,78.84
2023-01-19T21:36:41.885Z,78.89
2023-01-19T21:39:43.838Z,78.65
2023-01-19T21:42:45.764Z,78.63
2023-01-19T21:45:48.735Z,78.83
2023-01-19T21:48:50.577Z,78.35
2023-01-19T21:51:52.691Z,78.65
2023-01-19T21:54:54.880Z,79.04
2023-01-19T21:57:57.038Z,78.94
2023-01-19T22:01:00.782Z,79.27
2023-01-19T22:04:02.844Z,78.78
2023-01-19T22:07:05.404Z,79.05
2023-01-19T22:10:09.305Z,78.96
2023-01-19T22:13:11.239Z,79.03
2023-01-19T22:16:18.860Z,79.17
2023-01-19T22:19:20.896Z,79.19
2023-01-19T22:22:22.731Z,79.39
2023-01-19T22:25:27.879Z,78.91
2023-01-19T22:28:29.970Z,79.06
2023-01-19T22:31:32.576Z,79.21
2023-01-19T22:34:35.037Z,79.07
2023-01-19T22:37:37.637Z,79.25
2023-01-19T22:40:39.583Z,79.70
2023-01-19T22:43:41.954Z,78.92
2023-01-19T22:46:44.569Z,79.34
2023-01-19T22:49:46.460Z,79.21
2023-01-19T22:52:48.368Z,79.05
2023-01-19T22:55:50.335Z,79.66
2023-01-19T22:58:52.868Z,79.65
2023-01-19T23:01:54.894Z,79.55
2023-01-19T23:04:56.872Z,79.65
2023-01-19T23:07:58.799Z,79.53
2023-01-19T23:11:12.384Z,79.81
2023-01-19T23:14:17.756Z,79.61
2023-01-19T23:17:19.727Z,79.74
2023-01-19T23:20:21.628Z,79.63
2023-01-19T23:23:32.342Z,79.79
2023-01-19T23:26:38.332Z,79.88
2023-01-19T23:29:40.415Z,80.02
2023-01-19T23:32:47.094Z,80.08
2023-01-19T23:35:49.132Z,80.26
2023-01-19T23:38:54.039Z,80.13
2023-01-19T23:41:55.938Z,80.37
2023-01-19T23:44:57.817Z,80.42
2023-01-19T23:47:59.757Z,80.41
2023-01-19T23:51:13.249Z,80.29
2023-01-19T23:54:15.322Z,80.13
2023-01-19T23:57:17.207Z,80.45
